sensor_id;sensor_type;location;lat;lon;timestamp;pressure;altitude;pressure_sealevel;temperature;humidity
2339;BME280;1180;51.438;6.978;2022-07-24T00:01:36;100650.78;;;22.44;66.62
2339;BME280;1180;51.438;6.978;2022-07-24T00:04:03;100649.81;;;22.45;66.42
2339;BME280;1180;51.438;6.978;2022-07-24T00:06:28;100650.44;;;22.39;67.30
2339;BME280;1180;51.438;6.978;2022-07-24T00:08:54;100653.72;;;22.41;67.15
2339;BME280;1180;51.438;6.978;2022-07-24T00:11:19;100647.03;;;22.38;67.05
2339;BME280;1180;51.438;6.978;2022-07-24T00:13:45;100641.28;;;22.34;67.59
2339;BME280;1180;51.438;6.978;2022-07-24T00:16:10;100647.84;;;22.39;67.39
2339;BME280;1180;51.438;6.978;2022-07-24T00:18:36;100640.50;;;22.42;67.38
2339;BME280;1180;51.438;6.978;2022-07-24T00:21:01;100644.72;;;22.35;67.40
2339;BME280;1180;51.438;6.978;2022-07-24T00:23:27;100647.97;;;22.37;67.32
2339;BME280;1180;51.438;6.978;2022-07-24T00:25:53;100649.59;;;22.30;67.98
2339;BME280;1180;51.438;6.978;2022-07-24T00:28:19;100645.03;;;22.32;67.84
2339;BME280;1180;51.438;6.978;2022-07-24T00:30:45;100641.41;;;22.25;68.14
2339;BME280;1180;51.438;6.978;2022-07-24T00:33:10;100638.31;;;22.21;68.12
2339;BME280;1180;51.438;6.978;2022-07-24T00:35:36;100634.22;;;22.18;68.33
2339;BME280;1180;51.438;6.978;2022-07-24T00:38:01;100629.63;;;22.20;68.43
2339;BME280;1180;51.438;6.978;2022-07-24T00:40:27;100625.53;;;22.18;68.62
2339;BME280;1180;51.438;6.978;2022-07-24T00:42:53;100625.38;;;22.11;68.75
2339;BME280;1180;51.438;6.978;2022-07-24T00:45:18;100625.50;;;22.10;68.43
2339;BME280;1180;51.438;6.978;2022-07-24T00:47:44;100626.66;;;22.07;68.23
2339;BME280;1180;51.438;6.978;2022-07-24T00:50:09;100628.31;;;22.08;68.34
2339;BME280;1180;51.438;6.978;2022-07-24T00:52:35;100629.63;;;22.12;68.26
2339;BME280;1180;51.438;6.978;2022-07-24T00:55:01;100628.00;;;22.19;68.22
2339;BME280;1180;51.438;6.978;2022-07-24T00:57:26;100624.19;;;22.05;68.51
2339;BME280;1180;51.438;6.978;2022-07-24T00:59:52;100633.16;;;22.03;68.71
2339;BME280;1180;51.438;6.978;2022-07-24T01:02:19;100632.66;;;21.99;68.68
2339;BME280;1180;51.438;6.978;2022-07-24T01:04:45;100638.56;;;22.01;68.67
2339;BME280;1180;51.438;6.978;2022-07-24T01:07:11;100633.97;;;21.95;68.90
2339;BME280;1180;51.438;6.978;2022-07-24T01:09:36;100629.53;;;21.96;69.20
2339;BME280;1180;51.438;6.978;2022-07-24T01:12:03;100638.56;;;22.01;68.57
2339;BME280;1180;51.438;6.978;2022-07-24T01:14:32;100633.31;;;21.93;69.68
2339;BME280;1180;51.438;6.978;2022-07-24T01:16:57;100639.31;;;21.93;69.61
2339;BME280;1180;51.438;6.978;2022-07-24T01:19:24;100629.50;;;21.87;69.24
2339;BME280;1180;51.438;6.978;2022-07-24T01:21:51;100636.22;;;21.90;69.28
2339;BME280;1180;51.438;6.978;2022-07-24T01:24:18;100628.00;;;21.85;69.18
2339;BME280;1180;51.438;6.978;2022-07-24T01:26:44;100624.06;;;21.81;69.20
2339;BME280;1180;51.438;6.978;2022-07-24T01:29:10;100627.00;;;21.77;69.10
2339;BME280;1180;51.438;6.978;2022-07-24T01:31:35;100627.31;;;21.74;68.63
2339;BME280;1180;51.438;6.978;2022-07-24T01:34:02;100622.44;;;21.79;68.34
2339;BME280;1180;51.438;6.978;2022-07-24T01:36:27;100618.19;;;21.78;68.72
2339;BME280;1180;51.438;6.978;2022-07-24T01:38:52;100619.88;;;21.88;68.04
2339;BME280;1180;51.438;6.978;2022-07-24T01:41:18;100622.78;;;21.85;67.83
2339;BME280;1180;51.438;6.978;2022-07-24T01:43:43;100618.91;;;21.89;67.80
2339;BME280;1180;51.438;6.978;2022-07-24T01:46:09;100612.97;;;21.78;68.14
2339;BME280;1180;51.438;6.978;2022-07-24T01:48:35;100617.22;;;21.79;68.03
2339;BME280;1180;51.438;6.978;2022-07-24T01:51:00;100612.34;;;21.85;67.75
2339;BME280;1180;51.438;6.978;2022-07-24T01:53:25;100617.28;;;21.88;67.45
2339;BME280;1180;51.438;6.978;2022-07-24T01:55:52;100611.75;;;21.91;67.62
2339;BME280;1180;51.438;6.978;2022-07-24T01:58:18;100600.75;;;21.87;67.56
2339;BME280;1180;51.438;6.978;2022-07-24T02:00:47;100606.44;;;21.83;67.88
2339;BME280;1180;51.438;6.978;2022-07-24T02:03:12;100610.25;;;21.88;67.08
2339;BME280;1180;51.438;6.978;2022-07-24T02:05:39;100602.56;;;21.87;67.52
2339;BME280;1180;51.438;6.978;2022-07-24T02:08:05;100607.78;;;21.87;67.52
2339;BME280;1180;51.438;6.978;2022-07-24T02:10:31;100606.97;;;21.86;67.08
2339;BME280;1180;51.438;6.978;2022-07-24T02:12:57;100607.78;;;21.87;67.54
2339;BME280;1180;51.438;6.978;2022-07-24T02:15:22;100608.81;;;21.94;67.47
2339;BME280;1180;51.438;6.978;2022-07-24T02:17:50;100598.19;;;21.96;67.08
2339;BME280;1180;51.438;6.978;2022-07-24T02:20:16;100600.91;;;21.86;67.57
2339;BME280;1180;51.438;6.978;2022-07-24T02:22:42;100602.19;;;21.73;67.63
2339;BME280;1180;51.438;6.978;2022-07-24T02:25:08;100595.50;;;21.79;67.67
2339;BME280;1180;51.438;6.978;2022-07-24T02:27:34;100600.88;;;21.77;67.53
2339;BME280;1180;51.438;6.978;2022-07-24T02:30:00;100595.03;;;21.84;67.52
2339;BME280;1180;51.438;6.978;2022-07-24T02:32:26;100595.69;;;21.86;67.64
2339;BME280;1180;51.438;6.978;2022-07-24T02:34:54;100600.25;;;21.84;68.08
2339;BME280;1180;51.438;6.978;2022-07-24T02:37:19;100595.03;;;21.84;67.94
2339;BME280;1180;51.438;6.978;2022-07-24T02:39:45;100596.19;;;21.81;67.76
2339;BME280;1180;51.438;6.978;2022-07-24T02:42:10;100592.38;;;21.75;68.20
2339;BME280;1180;51.438;6.978;2022-07-24T02:44:35;100585.38;;;21.76;67.62
2339;BME280;1180;51.438;6.978;2022-07-24T02:47:01;100584.59;;;21.57;68.13
2339;BME280;1180;51.438;6.978;2022-07-24T02:49:26;100573.69;;;21.62;68.04
2339;BME280;1180;51.438;6.978;2022-07-24T02:51:51;100579.50;;;21.74;67.83
2339;BME280;1180;51.438;6.978;2022-07-24T02:54:17;100584.22;;;21.78;68.13
2339;BME280;1180;51.438;6.978;2022-07-24T02:56:42;100580.31;;;21.74;68.17
2339;BME280;1180;51.438;6.978;2022-07-24T02:59:08;100577.69;;;21.74;68.57
2339;BME280;1180;51.438;6.978;2022-07-24T03:01:34;100573.63;;;21.72;68.37
2339;BME280;1180;51.438;6.978;2022-07-24T03:03:59;100571.50;;;21.75;68.00
2339;BME280;1180;51.438;6.978;2022-07-24T03:06:25;100571.28;;;21.69;68.07
2339;BME280;1180;51.438;6.978;2022-07-24T03:08:50;100574.72;;;21.69;68.73
2339;BME280;1180;51.438;6.978;2022-07-24T03:11:16;100572.78;;;21.71;68.78
2339;BME280;1180;51.438;6.978;2022-07-24T03:13:41;100568.84;;;21.67;68.47
2339;BME280;1180;51.438;6.978;2022-07-24T03:16:06;100577.84;;;21.73;68.23
2339;BME280;1180;51.438;6.978;2022-07-24T03:18:32;100570.69;;;21.75;68.35
2339;BME280;1180;51.438;6.978;2022-07-24T03:20:57;100573.78;;;21.78;67.41
2339;BME280;1180;51.438;6.978;2022-07-24T03:23:23;100572.47;;;21.74;67.76
2339;BME280;1180;51.438;6.978;2022-07-24T03:25:48;100562.69;;;21.76;67.73
2339;BME280;1180;51.438;6.978;2022-07-24T03:28:15;100567.25;;;21.83;67.99
2339;BME280;1180;51.438;6.978;2022-07-24T03:30:40;100567.63;;;21.88;67.69
2339;BME280;1180;51.438;6.978;2022-07-24T03:33:05;100565.50;;;21.91;67.18
2339;BME280;1180;51.438;6.978;2022-07-24T03:35:31;100562.44;;;21.96;67.01
2339;BME280;1180;51.438;6.978;2022-07-24T03:37:56;100565.38;;;22.01;66.31
2339;BME280;1180;51.438;6.978;2022-07-24T03:40:22;100564.59;;;22.09;66.21
2339;BME280;1180;51.438;6.978;2022-07-24T03:42:48;100565.25;;;22.11;66.36
2339;BME280;1180;51.438;6.978;2022-07-24T03:45:13;100568.84;;;22.10;65.78
2339;BME280;1180;51.438;6.978;2022-07-24T03:47:38;100571.78;;;22.15;66.17
2339;BME280;1180;51.438;6.978;2022-07-24T03:50:04;100576.53;;;22.20;66.25
2339;BME280;1180;51.438;6.978;2022-07-24T03:52:29;100572.00;;;22.22;65.77
2339;BME280;1180;51.438;6.978;2022-07-24T03:54:55;100579.97;;;22.20;66.27
2339;BME280;1180;51.438;6.978;2022-07-24T03:57:21;100574.44;;;22.24;66.37
2339;BME280;1180;51.438;6.978;2022-07-24T03:59:47;100585.72;;;22.24;65.99
2339;BME280;1180;51.438;6.978;2022-07-24T04:02:12;100582.94;;;22.34;65.63
2339;BME280;1180;51.438;6.978;2022-07-24T04:04:38;100592.75;;;22.32;65.63
2339;BME280;1180;51.438;6.978;2022-07-24T04:07:03;100583.28;;;22.39;65.13
2339;BME280;1180;51.438;6.978;2022-07-24T04:09:28;100587.88;;;22.45;65.31
2339;BME280;1180;51.438;6.978;2022-07-24T04:11:54;100586.75;;;22.48;64.58
2339;BME280;1180;51.438;6.978;2022-07-24T04:14:19;100589.41;;;22.56;64.58
2339;BME280;1180;51.438;6.978;2022-07-24T04:16:45;100583.34;;;22.64;64.31
2339;BME280;1180;51.438;6.978;2022-07-24T04:19:10;100582.03;;;22.68;64.27
2339;BME280;1180;51.438;6.978;2022-07-24T04:21:35;100574.50;;;22.65;64.56
2339;BME280;1180;51.438;6.978;2022-07-24T04:24:01;100579.41;;;22.68;64.26
2339;BME280;1180;51.438;6.978;2022-07-24T04:26:26;100574.69;;;22.72;63.95
2339;BME280;1180;51.438;6.978;2022-07-24T04:28:52;100570.28;;;22.81;64.11
2339;BME280;1180;51.438;6.978;2022-07-24T04:31:17;100569.63;;;22.87;64.49
2339;BME280;1180;51.438;6.978;2022-07-24T04:33:43;100572.22;;;22.87;64.54
2339;BME280;1180;51.438;6.978;2022-07-24T04:36:09;100568.97;;;22.85;64.78
2339;BME280;1180;51.438;6.978;2022-07-24T04:38:34;100574.84;;;22.87;64.65
2339;BME280;1180;51.438;6.978;2022-07-24T04:41:01;100569.44;;;22.80;64.51
2339;BME280;1180;51.438;6.978;2022-07-24T04:43:26;100573.53;;;22.83;65.07
2339;BME280;1180;51.438;6.978;2022-07-24T04:45:52;100568.66;;;22.79;65.30
2339;BME280;1180;51.438;6.978;2022-07-24T04:48:17;100568.13;;;22.76;65.26
2339;BME280;1180;51.438;6.978;2022-07-24T04:50:43;100570.44;;;22.79;65.62
2339;BME280;1180;51.438;6.978;2022-07-24T04:53:08;100572.25;;;22.78;65.45
2339;BME280;1180;51.438;6.978;2022-07-24T04:55:34;100564.72;;;22.75;65.67
2339;BME280;1180;51.438;6.978;2022-07-24T04:57:59;100573.03;;;22.79;66.26
2339;BME280;1180;51.438;6.978;2022-07-24T05:00:24;100575.34;;;22.74;65.91
2339;BME280;1180;51.438;6.978;2022-07-24T05:02:50;100572.22;;;22.62;66.12
2339;BME280;1180;51.438;6.978;2022-07-24T05:05:15;100574.03;;;22.61;65.92
2339;BME280;1180;51.438;6.978;2022-07-24T05:07:40;100578.59;;;22.68;65.88
2339;BME280;1180;51.438;6.978;2022-07-24T05:10:08;100565.19;;;22.71;65.93
2339;BME280;1180;51.438;6.978;2022-07-24T05:12:34;100566.19;;;22.70;66.24
2339;BME280;1180;51.438;6.978;2022-07-24T05:14:59;100568.13;;;22.76;66.36
2339;BME280;1180;51.438;6.978;2022-07-24T05:17:24;100566.19;;;22.78;65.83
2339;BME280;1180;51.438;6.978;2022-07-24T05:19:50;100563.72;;;22.85;65.72
2339;BME280;1180;51.438;6.978;2022-07-24T05:22:15;100572.38;;;22.85;66.27
2339;BME280;1180;51.438;6.978;2022-07-24T05:24:40;100566.84;;;22.88;66.00
2339;BME280;1180;51.438;6.978;2022-07-24T05:27:06;100571.09;;;22.89;66.12
2339;BME280;1180;51.438;6.978;2022-07-24T05:29:31;100568.47;;;22.89;66.31
2339;BME280;1180;51.438;6.978;2022-07-24T05:31:57;100568.31;;;22.91;66.63
2339;BME280;1180;51.438;6.978;2022-07-24T05:34:22;100575.03;;;22.93;66.12
2339;BME280;1180;51.438;6.978;2022-07-24T05:36:47;100568.94;;;22.93;66.19
2339;BME280;1180;51.438;6.978;2022-07-24T05:39:13;100572.72;;;22.90;65.72
2339;BME280;1180;51.438;6.978;2022-07-24T05:41:38;100571.41;;;22.94;66.00
2339;BME280;1180;51.438;6.978;2022-07-24T05:44:04;100575.50;;;23.05;65.65
2339;BME280;1180;51.438;6.978;2022-07-24T05:46:30;100579.75;;;23.15;65.82
2339;BME280;1180;51.438;6.978;2022-07-24T05:48:58;100580.22;;;23.10;65.64
2339;BME280;1180;51.438;6.978;2022-07-24T05:51:23;100581.22;;;23.09;64.98
2339;BME280;1180;51.438;6.978;2022-07-24T05:53:50;100584.78;;;23.16;65.63
2339;BME280;1180;51.438;6.978;2022-07-24T05:56:16;100589.38;;;23.22;65.07
2339;BME280;1180;51.438;6.978;2022-07-24T05:58:41;100594.31;;;23.26;65.45
2339;BME280;1180;51.438;6.978;2022-07-24T06:01:06;100599.19;;;23.37;65.70
2339;BME280;1180;51.438;6.978;2022-07-24T06:03:32;100598.22;;;23.38;65.57
2339;BME280;1180;51.438;6.978;2022-07-24T06:05:57;100594.78;;;23.29;65.16
2339;BME280;1180;51.438;6.978;2022-07-24T06:08:23;100598.38;;;23.28;66.00
2339;BME280;1180;51.438;6.978;2022-07-24T06:10:50;100603.63;;;23.28;64.92
2339;BME280;1180;51.438;6.978;2022-07-24T06:13:16;100604.28;;;23.30;65.59
2339;BME280;1180;51.438;6.978;2022-07-24T06:15:41;100611.31;;;23.21;66.35
2339;BME280;1180;51.438;6.978;2022-07-24T06:18:07;100600.19;;;23.36;64.78
2339;BME280;1180;51.438;6.978;2022-07-24T06:20:32;100605.88;;;23.56;63.87
2339;BME280;1180;51.438;6.978;2022-07-24T06:22:57;100609.59;;;23.70;63.50
2339;BME280;1180;51.438;6.978;2022-07-24T06:25:23;100611.84;;;23.82;63.37
2339;BME280;1180;51.438;6.978;2022-07-24T06:27:49;100612.47;;;23.92;63.34
2339;BME280;1180;51.438;6.978;2022-07-24T06:30:20;100613.91;;;24.03;63.00
2339;BME280;1180;51.438;6.978;2022-07-24T06:32:47;100606.47;;;24.15;63.33
2339;BME280;1180;51.438;6.978;2022-07-24T06:35:13;100610.22;;;24.20;63.12
2339;BME280;1180;51.438;6.978;2022-07-24T06:37:39;100610.22;;;24.20;63.13
2339;BME280;1180;51.438;6.978;2022-07-24T06:40:05;100608.75;;;24.18;63.24
2339;BME280;1180;51.438;6.978;2022-07-24T06:42:30;100603.78;;;24.31;63.13
2339;BME280;1180;51.438;6.978;2022-07-24T06:44:56;100609.03;;;24.31;62.77
2339;BME280;1180;51.438;6.978;2022-07-24T06:47:21;100619.31;;;24.33;63.28
2339;BME280;1180;51.438;6.978;2022-07-24T06:49:46;100613.56;;;24.37;63.59
2339;BME280;1180;51.438;6.978;2022-07-24T06:52:14;100614.84;;;24.42;62.76
2339;BME280;1180;51.438;6.978;2022-07-24T06:54:39;100610.25;;;24.44;62.61
2339;BME280;1180;51.438;6.978;2022-07-24T06:57:06;100606.13;;;24.49;62.77
2339;BME280;1180;51.438;6.978;2022-07-24T06:59:32;100606.13;;;24.49;62.87
2339;BME280;1180;51.438;6.978;2022-07-24T07:01:57;100600.41;;;24.46;62.67
2339;BME280;1180;51.438;6.978;2022-07-24T07:04:22;100606.19;;;24.41;62.52
2339;BME280;1180;51.438;6.978;2022-07-24T07:06:48;100614.97;;;24.48;62.28
2339;BME280;1180;51.438;6.978;2022-07-24T07:09:13;100603.50;;;24.49;62.39
2339;BME280;1180;51.438;6.978;2022-07-24T07:11:39;100602.16;;;24.54;61.77
2339;BME280;1180;51.438;6.978;2022-07-24T07:14:04;100598.72;;;24.53;61.54
2339;BME280;1180;51.438;6.978;2022-07-24T07:16:30;100598.66;;;24.61;61.93
2339;BME280;1180;51.438;6.978;2022-07-24T07:18:55;100605.34;;;24.64;61.58
2339;BME280;1180;51.438;6.978;2022-07-24T07:21:20;100610.38;;;24.74;61.72
2339;BME280;1180;51.438;6.978;2022-07-24T07:23:46;100611.69;;;24.78;61.39
2339;BME280;1180;51.438;6.978;2022-07-24T07:26:11;100609.06;;;24.78;60.95
2339;BME280;1180;51.438;6.978;2022-07-24T07:28:36;100609.69;;;24.80;62.18
2339;BME280;1180;51.438;6.978;2022-07-24T07:31:02;100612.66;;;24.77;61.96
2339;BME280;1180;51.438;6.978;2022-07-24T07:33:27;100599.66;;;24.84;61.79
2339;BME280;1180;51.438;6.978;2022-07-24T07:35:53;100609.81;;;24.87;61.97
2339;BME280;1180;51.438;6.978;2022-07-24T07:38:18;100607.03;;;24.88;61.58
2339;BME280;1180;51.438;6.978;2022-07-24T07:40:44;100610.38;;;24.97;61.38
2339;BME280;1180;51.438;6.978;2022-07-24T07:43:09;100605.50;;;25.09;61.36
2339;BME280;1180;51.438;6.978;2022-07-24T07:45:35;100614.13;;;25.18;60.44
2339;BME280;1180;51.438;6.978;2022-07-24T07:48:00;100616.59;;;25.19;60.41
2339;BME280;1180;51.438;6.978;2022-07-24T07:50:26;100612.50;;;25.17;61.07
2339;BME280;1180;51.438;6.978;2022-07-24T07:52:51;100617.03;;;25.23;61.06
2339;BME280;1180;51.438;6.978;2022-07-24T07:55:17;100618.94;;;25.29;60.55
2339;BME280;1180;51.438;6.978;2022-07-24T07:57:42;100611.91;;;25.30;59.85
2339;BME280;1180;51.438;6.978;2022-07-24T08:00:09;100615.16;;;25.32;60.28
2339;BME280;1180;51.438;6.978;2022-07-24T08:02:35;100609.81;;;25.40;60.38
2339;BME280;1180;51.438;6.978;2022-07-24T08:05:00;100618.31;;;25.42;60.05
2339;BME280;1180;51.438;6.978;2022-07-24T08:07:26;100611.06;;;25.44;60.10
2339;BME280;1180;51.438;6.978;2022-07-24T08:09:51;100606.94;;;25.50;60.48
2339;BME280;1180;51.438;6.978;2022-07-24T08:12:16;100616.00;;;25.47;59.84
2339;BME280;1180;51.438;6.978;2022-07-24T08:14:42;100617.97;;;25.45;60.04
2339;BME280;1180;51.438;6.978;2022-07-24T08:17:07;100614.09;;;25.56;60.82
2339;BME280;1180;51.438;6.978;2022-07-24T08:19:32;100611.31;;;25.58;60.61
2339;BME280;1180;51.438;6.978;2022-07-24T08:21:58;100614.09;;;25.71;59.56
2339;BME280;1180;51.438;6.978;2022-07-24T08:24:23;100609.47;;;25.73;60.16
2339;BME280;1180;51.438;6.978;2022-07-24T08:26:49;100609.38;;;25.81;59.79
2339;BME280;1180;51.438;6.978;2022-07-24T08:29:15;100610.28;;;25.89;59.18
2339;BME280;1180;51.438;6.978;2022-07-24T08:31:41;100617.88;;;25.99;59.14
2339;BME280;1180;51.438;6.978;2022-07-24T08:34:06;100611.81;;;25.98;58.70
2339;BME280;1180;51.438;6.978;2022-07-24T08:36:32;100609.88;;;26.07;59.00
2339;BME280;1180;51.438;6.978;2022-07-24T08:38:57;100610.53;;;26.09;59.27
2339;BME280;1180;51.438;6.978;2022-07-24T08:41:23;100607.88;;;26.09;59.03
2339;BME280;1180;51.438;6.978;2022-07-24T08:43:48;100610.44;;;26.17;59.01
2339;BME280;1180;51.438;6.978;2022-07-24T08:46:15;100615.88;;;26.16;58.98
2339;BME280;1180;51.438;6.978;2022-07-24T08:48:44;100609.59;;;26.17;58.23
2339;BME280;1180;51.438;6.978;2022-07-24T08:51:13;100610.59;;;26.16;58.82
2339;BME280;1180;51.438;6.978;2022-07-24T08:53:43;100612.56;;;26.14;59.39
2339;BME280;1180;51.438;6.978;2022-07-24T08:56:09;100611.50;;;26.23;59.22
2339;BME280;1180;51.438;6.978;2022-07-24T08:58:40;100607.13;;;26.30;58.48
2339;BME280;1180;51.438;6.978;2022-07-24T09:01:06;100599.66;;;26.34;58.30
2339;BME280;1180;51.438;6.978;2022-07-24T09:03:42;100595.78;;;26.30;58.60
2339;BME280;1180;51.438;6.978;2022-07-24T09:06:09;100594.69;;;26.39;58.64
2339;BME280;1180;51.438;6.978;2022-07-24T09:08:35;100593.91;;;26.45;58.70
2339;BME280;1180;51.438;6.978;2022-07-24T09:11:03;100592.28;;;26.44;57.95
2339;BME280;1180;51.438;6.978;2022-07-24T09:13:30;100578.31;;;26.44;58.43
2339;BME280;1180;51.438;6.978;2022-07-24T09:16:21;100586.13;;;26.59;58.84
2339;BME280;1180;51.438;6.978;2022-07-24T09:18:49;100580.69;;;26.60;58.09
2339;BME280;1180;51.438;6.978;2022-07-24T09:21:16;100574.22;;;26.63;58.13
2339;BME280;1180;51.438;6.978;2022-07-24T09:23:43;100573.66;;;26.67;57.27
2339;BME280;1180;51.438;6.978;2022-07-24T09:26:09;100570.41;;;26.65;57.30
2339;BME280;1180;51.438;6.978;2022-07-24T09:28:51;100569.03;;;26.70;58.45
2339;BME280;1180;51.438;6.978;2022-07-24T09:31:17;100572.75;;;26.82;58.81
2339;BME280;1180;51.438;6.978;2022-07-24T09:33:43;100571.13;;;26.81;58.12
2339;BME280;1180;51.438;6.978;2022-07-24T09:36:13;100557.09;;;26.95;58.02
2339;BME280;1180;51.438;6.978;2022-07-24T09:38:45;100558.19;;;27.08;57.62
2339;BME280;1180;51.438;6.978;2022-07-24T09:41:11;100558.00;;;27.09;57.45
2339;BME280;1180;51.438;6.978;2022-07-24T09:43:37;100559.41;;;27.12;56.77
2339;BME280;1180;51.438;6.978;2022-07-24T09:46:09;100562.72;;;27.21;57.36
2339;BME280;1180;51.438;6.978;2022-07-24T09:48:54;100557.28;;;27.22;56.82
2339;BME280;1180;51.438;6.978;2022-07-24T09:51:23;100551.16;;;27.22;57.36
2339;BME280;1180;51.438;6.978;2022-07-24T09:53:53;100562.78;;;27.34;57.24
2339;BME280;1180;51.438;6.978;2022-07-24T09:56:20;100563.84;;;27.40;56.35
2339;BME280;1180;51.438;6.978;2022-07-24T10:01:12;100554.53;;;27.44;56.66
2339;BME280;1180;51.438;6.978;2022-07-24T10:03:39;100550.56;;;27.55;56.62
2339;BME280;1180;51.438;6.978;2022-07-24T10:06:10;100555.06;;;27.68;55.22
2339;BME280;1180;51.438;6.978;2022-07-24T10:08:37;100558.72;;;27.67;54.60
2339;BME280;1180;51.438;6.978;2022-07-24T10:11:03;100560.34;;;27.68;55.54
2339;BME280;1180;51.438;6.978;2022-07-24T10:13:29;100557.88;;;27.60;55.15
2339;BME280;1180;51.438;6.978;2022-07-24T10:18:49;100549.00;;;27.74;54.57
2339;BME280;1180;51.438;6.978;2022-07-24T10:21:23;100548.59;;;27.77;54.59
2339;BME280;1180;51.438;6.978;2022-07-24T10:26:41;100543.97;;;27.86;54.66
2339;BME280;1180;51.438;6.978;2022-07-24T10:29:16;100550.69;;;27.95;54.93
2339;BME280;1180;51.438;6.978;2022-07-24T10:31:47;100540.97;;;28.09;55.15
2339;BME280;1180;51.438;6.978;2022-07-24T10:37:23;100539.19;;;28.17;54.01
2339;BME280;1180;51.438;6.978;2022-07-24T10:42:32;100525.53;;;28.06;53.19
2339;BME280;1180;51.438;6.978;2022-07-24T10:45:26;100523.56;;;28.15;53.87
2339;BME280;1180;51.438;6.978;2022-07-24T10:47:56;100515.06;;;28.40;54.30
2339;BME280;1180;51.438;6.978;2022-07-24T10:50:21;100528.84;;;28.35;51.55
2339;BME280;1180;51.438;6.978;2022-07-24T10:52:47;100528.06;;;28.35;52.90
2339;BME280;1180;51.438;6.978;2022-07-24T10:55:38;100524.00;;;28.39;52.94
2339;BME280;1180;51.438;6.978;2022-07-24T10:58:14;100521.53;;;28.64;53.73
2339;BME280;1180;51.438;6.978;2022-07-24T11:00:45;100514.03;;;28.81;52.79
2339;BME280;1180;51.438;6.978;2022-07-24T11:03:21;100514.22;;;28.93;52.90
2339;BME280;1180;51.438;6.978;2022-07-24T11:06:07;100516.03;;;28.93;51.97
2339;BME280;1180;51.438;6.978;2022-07-24T11:08:40;100512.13;;;29.09;51.79
2339;BME280;1180;51.438;6.978;2022-07-24T11:11:09;100508.03;;;29.26;50.64
2339;BME280;1180;51.438;6.978;2022-07-24T11:16:24;100504.31;;;29.41;51.03
2339;BME280;1180;51.438;6.978;2022-07-24T11:21:31;100498.59;;;29.51;49.82
2339;BME280;1180;51.438;6.978;2022-07-24T11:31:54;100489.34;;;29.67;49.24
2339;BME280;1180;51.438;6.978;2022-07-24T11:34:20;100497.91;;;29.62;50.02
2339;BME280;1180;51.438;6.978;2022-07-24T11:36:48;100486.13;;;29.58;49.71
2339;BME280;1180;51.438;6.978;2022-07-24T11:39:14;100487.22;;;29.50;50.43
2339;BME280;1180;51.438;6.978;2022-07-24T11:41:59;100484.91;;;29.61;51.09
2339;BME280;1180;51.438;6.978;2022-07-24T11:44:30;100474.00;;;29.82;48.98
2339;BME280;1180;51.438;6.978;2022-07-24T11:46:58;100480.94;;;29.83;48.03
2339;BME280;1180;51.438;6.978;2022-07-24T11:49:26;100475.56;;;29.90;47.55
2339;BME280;1180;51.438;6.978;2022-07-24T11:51:53;100478.38;;;29.95;46.55
2339;BME280;1180;51.438;6.978;2022-07-24T11:54:26;100468.59;;;30.03;46.92
2339;BME280;1180;51.438;6.978;2022-07-24T11:56:53;100470.97;;;30.11;47.62
2339;BME280;1180;51.438;6.978;2022-07-24T12:01:51;100464.03;;;30.17;49.53
2339;BME280;1180;51.438;6.978;2022-07-24T12:04:20;100461.97;;;30.19;48.76
2339;BME280;1180;51.438;6.978;2022-07-24T12:06:48;100457.97;;;30.35;48.00
2339;BME280;1180;51.438;6.978;2022-07-24T12:09:16;100443.69;;;30.54;47.66
2339;BME280;1180;51.438;6.978;2022-07-24T12:11:42;100448.53;;;30.64;48.32
2339;BME280;1180;51.438;6.978;2022-07-24T12:14:18;100448.53;;;30.64;48.10
2339;BME280;1180;51.438;6.978;2022-07-24T12:16:51;100443.66;;;30.80;45.67
2339;BME280;1180;51.438;6.978;2022-07-24T12:19:22;100444.25;;;30.82;46.75
2339;BME280;1180;51.438;6.978;2022-07-24T12:21:50;100438.59;;;30.78;45.24
2339;BME280;1180;51.438;6.978;2022-07-24T12:24:16;100437.06;;;30.89;44.54
2339;BME280;1180;51.438;6.978;2022-07-24T12:26:56;100438.34;;;30.80;45.08
2339;BME280;1180;51.438;6.978;2022-07-24T12:29:23;100426.53;;;30.82;43.42
2339;BME280;1180;51.438;6.978;2022-07-24T12:31:52;100422.78;;;30.90;44.01
2339;BME280;1180;51.438;6.978;2022-07-24T12:34:17;100432.91;;;30.93;44.82
2339;BME280;1180;51.438;6.978;2022-07-24T12:36:43;100417.59;;;30.95;47.12
2339;BME280;1180;51.438;6.978;2022-07-24T12:39:11;100413.16;;;31.08;46.10
2339;BME280;1180;51.438;6.978;2022-07-24T12:41:46;100412.13;;;31.27;45.09
2339;BME280;1180;51.438;6.978;2022-07-24T12:44:13;100409.59;;;31.33;42.85
2339;BME280;1180;51.438;6.978;2022-07-24T12:46:41;100403.13;;;31.29;43.03
2339;BME280;1180;51.438;6.978;2022-07-24T12:49:19;100401.66;;;31.33;43.34
2339;BME280;1180;51.438;6.978;2022-07-24T12:51:58;100408.59;;;31.46;43.02
2339;BME280;1180;51.438;6.978;2022-07-24T12:54:36;100405.03;;;31.52;42.70
2339;BME280;1180;51.438;6.978;2022-07-24T12:57:08;100391.91;;;31.57;42.27
2339;BME280;1180;51.438;6.978;2022-07-24T12:59:35;100394.44;;;31.52;41.93
2339;BME280;1180;51.438;6.978;2022-07-24T13:02:09;100384.06;;;31.50;40.30
2339;BME280;1180;51.438;6.978;2022-07-24T13:04:49;100385.28;;;31.36;40.06
2339;BME280;1180;51.438;6.978;2022-07-24T13:07:20;100382.66;;;31.48;41.78
2339;BME280;1180;51.438;6.978;2022-07-24T13:09:47;100377.84;;;31.57;42.25
2339;BME280;1180;51.438;6.978;2022-07-24T13:12:13;100382.03;;;31.76;41.97
2339;BME280;1180;51.438;6.978;2022-07-24T13:14:39;100373.50;;;31.86;40.97
2339;BME280;1180;51.438;6.978;2022-07-24T13:17:09;100376.28;;;32.03;41.46
2339;BME280;1180;51.438;6.978;2022-07-24T13:19:39;100370.41;;;32.01;41.11
2339;BME280;1180;51.438;6.978;2022-07-24T13:22:05;100375.59;;;32.08;39.91
2339;BME280;1180;51.438;6.978;2022-07-24T13:24:30;100360.13;;;32.17;40.26
2339;BME280;1180;51.438;6.978;2022-07-24T13:26:58;100367.16;;;32.23;39.44
2339;BME280;1180;51.438;6.978;2022-07-24T13:29:24;100353.66;;;32.12;38.36
2339;BME280;1180;51.438;6.978;2022-07-24T13:31:50;100362.44;;;32.01;40.72
2339;BME280;1180;51.438;6.978;2022-07-24T13:34:16;100352.59;;;32.13;40.32
2339;BME280;1180;51.438;6.978;2022-07-24T13:36:41;100346.25;;;32.26;38.82
2339;BME280;1180;51.438;6.978;2022-07-24T13:39:07;100352.47;;;32.44;38.22